Time;durP1;ratioP1;P1;durP2;ratioP2;P2;SDS_P1;SDS_P2;PMS_P1;PMS_P2;Temp;Humidity;BMP_temperature;BMP_pressure;BME280_temperature;BME280_humidity;BME280_pressure;Samples;Min_cycle;Max_cycle;Signal;HPM_P1;HPM_P2
2024/01/25 00:01:42;;;;;;;31.90;6.13;;;7.60;58.70;;;;;;4891487;29;20444;-77
2024/01/25 00:04:07;;;;;;;29.80;6.15;;;7.60;59.90;;;;;;4891803;29;20793;-77
2024/01/25 00:06:33;;;;;;;34.85;6.10;;;7.50;60.90;;;;;;4890768;29;20423;-77
2024/01/25 00:08:59;;;;;;;28.20;5.83;;;7.50;61.20;;;;;;4874840;29;20486;-77
2024/01/25 00:11:24;;;;;;;33.88;6.78;;;7.50;61.90;;;;;;4880550;29;20432;-77
2024/01/25 00:13:50;;;;;;;34.03;6.90;;;7.40;63.30;;;;;;4890603;29;20418;-77
2024/01/25 00:16:15;;;;;;;34.63;6.93;;;7.30;64.40;;;;;;4882358;29;20429;-76
2024/01/25 00:18:41;;;;;;;36.15;6.70;;;7.30;64.90;;;;;;4894282;29;20415;-77
2024/01/25 00:21:07;;;;;;;35.80;6.20;;;7.30;66.00;;;;;;4869923;29;20431;-77
2024/01/25 00:23:33;;;;;;;37.53;7.20;;;7.30;67.60;;;;;;4893814;29;20422;-77
2024/01/25 00:25:59;;;;;;;36.08;6.88;;;7.20;68.50;;;;;;4882270;29;20411;-77
2024/01/25 00:28:26;;;;;;;37.67;6.87;;;7.20;69.30;;;;;;4892819;29;20455;-77
2024/01/25 00:30:51;;;;;;;36.35;6.05;;;7.20;70.10;;;;;;4882175;29;20418;-77
2024/01/25 00:33:17;;;;;;;35.37;6.67;;;7.10;71.80;;;;;;4893404;29;20421;-77
2024/01/25 00:35:43;;;;;;;35.28;6.65;;;7.10;73.10;;;;;;4893253;29;20746;-77
2024/01/25 00:38:09;;;;;;;34.20;6.60;;;7.10;74.20;;;;;;4892070;29;20425;-76
2024/01/25 00:40:35;;;;;;;38.35;7.13;;;7.00;74.30;;;;;;4875609;29;20426;-77
2024/01/25 00:43:01;;;;;;;40.17;7.93;;;7.00;75.70;;;;;;4875577;29;21156;-77
2024/01/25 00:45:27;;;;;;;39.10;6.80;;;6.90;76.20;;;;;;4875749;29;20963;-77
2024/01/25 00:47:53;;;;;;;35.90;6.72;;;6.90;77.60;;;;;;4891954;29;20415;-77
2024/01/25 00:50:20;;;;;;;39.08;7.25;;;6.90;78.10;;;;;;4891349;29;20426;-77
2024/01/25 00:52:48;;;;;;;41.00;8.00;;;6.90;79.60;;;;;;4891374;29;20746;-77
2024/01/25 00:55:15;;;;;;;38.45;7.40;;;6.90;80.20;;;;;;4890635;29;20426;-76
2024/01/25 00:57:40;;;;;;;35.78;6.95;;;6.80;81.30;;;;;;4890368;29;20841;-76
2024/01/25 01:00:08;;;;;;;38.03;6.73;;;6.80;81.30;;;;;;4880029;29;20506;-76
2024/01/25 01:02:37;;;;;;;35.97;7.32;;;6.70;81.50;;;;;;4880167;29;20463;-76
2024/01/25 01:05:03;;;;;;;39.78;7.47;;;6.70;82.00;;;;;;4891865;29;20414;-76
2024/01/25 01:07:29;;;;;;;52.00;8.55;;;6.70;82.70;;;;;;4889563;29;20842;-76
2024/01/25 01:09:54;;;;;;;38.70;7.50;;;6.70;83.80;;;;;;4891479;29;20609;-76
2024/01/25 01:12:20;;;;;;;40.80;7.47;;;6.70;84.70;;;;;;4889974;29;20418;-76
2024/01/25 01:14:45;;;;;;;37.53;7.15;;;6.70;86.50;;;;;;4885693;29;20409;-76
2024/01/25 01:17:11;;;;;;;45.47;8.13;;;6.70;85.90;;;;;;4887510;29;20924;-76
2024/01/25 01:19:37;;;;;;;36.95;7.07;;;6.70;85.70;;;;;;4893366;29;20411;-76
2024/01/25 01:22:02;;;;;;;40.73;8.10;;;6.60;85.00;;;;;;4879369;29;20441;-76
2024/01/25 01:24:28;;;;;;;42.40;8.07;;;6.60;86.70;;;;;;4892894;29;20470;-76
2024/01/25 01:26:53;;;;;;;44.22;7.72;;;6.60;87.30;;;;;;4892155;29;20502;-76
2024/01/25 01:29:19;;;;;;;41.67;7.73;;;6.50;86.80;;;;;;4893104;29;20789;-77
2024/01/25 01:31:45;;;;;;;42.08;7.88;;;6.50;89.50;;;;;;4890930;29;20561;-77
2024/01/25 01:34:12;;;;;;;41.80;7.60;;;6.50;88.50;;;;;;4892616;29;20450;-76
2024/01/25 01:36:38;;;;;;;40.95;7.30;;;6.50;88.30;;;;;;4890993;29;20423;-77
2024/01/25 01:39:03;;;;;;;41.97;6.90;;;6.50;89.10;;;;;;4892324;29;20418;-76
2024/01/25 01:41:29;;;;;;;48.27;8.00;;;6.50;88.90;;;;;;4890459;29;20446;-77
2024/01/25 01:43:55;;;;;;;41.25;7.28;;;6.50;89.50;;;;;;4892122;29;20430;-76
2024/01/25 01:46:27;;;;;;;37.07;6.70;;;6.40;89.50;;;;;;4889021;29;20469;-76
2024/01/25 01:48:53;;;;;;;40.00;7.75;;;6.40;89.70;;;;;;4890696;29;20418;-76
2024/01/25 01:51:18;;;;;;;44.33;7.40;;;6.40;90.10;;;;;;4888062;29;20428;-76
2024/01/25 01:53:45;;;;;;;45.38;8.40;;;6.40;90.30;;;;;;4879809;29;20419;-76
2024/01/25 01:56:11;;;;;;;41.75;7.72;;;6.40;90.40;;;;;;4887565;29;20788;-77
2024/01/25 01:58:37;;;;;;;43.57;7.37;;;6.40;90.00;;;;;;4889701;29;20415;-76
2024/01/25 02:01:04;;;;;;;42.25;7.85;;;6.40;90.00;;;;;;4886804;29;20483;-76
2024/01/25 02:03:29;;;;;;;40.25;8.15;;;6.30;90.30;;;;;;4889891;29;20921;-76
2024/01/25 02:05:55;;;;;;;44.20;7.53;;;6.30;90.70;;;;;;4886790;29;20420;-76
2024/01/25 02:08:20;;;;;;;39.57;7.53;;;6.30;91.50;;;;;;4872630;29;20992;-76
2024/01/25 02:10:46;;;;;;;42.83;6.90;;;6.30;91.10;;;;;;4887239;29;20498;-76
2024/01/25 02:13:12;;;;;;;39.13;6.85;;;6.30;91.00;;;;;;4889621;29;20474;-76
2024/01/25 02:15:37;;;;;;;41.83;7.57;;;6.30;91.90;;;;;;4877776;29;20822;-76
2024/01/25 02:18:03;;;;;;;46.03;7.95;;;6.30;91.80;;;;;;4874923;29;20425;-76
2024/01/25 02:20:28;;;;;;;41.50;7.87;;;6.30;92.10;;;;;;4871271;29;20420;-76
2024/01/25 02:22:54;;;;;;;38.28;7.13;;;6.30;92.00;;;;;;4877847;29;20615;-76
2024/01/25 02:25:19;;;;;;;40.20;7.63;;;6.30;91.90;;;;;;4881992;29;20424;-77
2024/01/25 02:27:45;;;;;;;44.10;7.07;;;6.30;92.20;;;;;;4883114;29;20486;-76
2024/01/25 02:30:11;;;;;;;40.92;7.15;;;6.30;92.30;;;;;;4884156;29;20463;-76
2024/01/25 02:32:36;;;;;;;38.27;6.83;;;6.20;92.70;;;;;;4880391;29;20419;-76
2024/01/25 02:35:02;;;;;;;46.08;7.30;;;6.20;92.70;;;;;;4881001;29;20427;-76
2024/01/25 02:37:28;;;;;;;43.07;7.73;;;6.30;92.80;;;;;;4881586;29;20420;-76
2024/01/25 02:39:54;;;;;;;44.17;7.97;;;6.30;92.90;;;;;;4878839;29;20424;-76
2024/01/25 02:42:19;;;;;;;43.28;7.65;;;6.20;92.80;;;;;;4879770;29;20472;-76
2024/01/25 02:44:45;;;;;;;48.95;7.63;;;6.20;93.00;;;;;;4878939;29;20426;-76
2024/01/25 02:47:11;;;;;;;36.25;7.38;;;6.20;93.20;;;;;;4862572;29;20422;-76
2024/01/25 02:49:36;;;;;;;43.50;8.00;;;6.10;93.00;;;;;;4878856;29;20485;-76
2024/01/25 02:52:02;;;;;;;44.65;8.07;;;6.10;93.20;;;;;;4879802;29;20403;-76
2024/01/25 02:54:28;;;;;;;50.00;8.17;;;6.10;93.50;;;;;;4883811;29;20962;-76
2024/01/25 02:56:54;;;;;;;44.27;7.43;;;6.10;93.20;;;;;;4878702;29;20436;-76
2024/01/25 02:59:19;;;;;;;51.65;7.50;;;6.10;93.60;;;;;;4879668;29;20422;-77
2024/01/25 03:01:45;;;;;;;39.08;7.85;;;6.10;93.90;;;;;;4878961;29;20448;-76
2024/01/25 03:04:11;;;;;;;47.70;7.80;;;6.10;93.60;;;;;;4879419;29;20522;-76
2024/01/25 03:06:37;;;;;;;40.30;7.20;;;6.10;94.10;;;;;;4878360;29;20416;-76
2024/01/25 03:09:05;;;;;;;43.95;7.47;;;6.10;93.70;;;;;;4878603;29;21042;-76
2024/01/25 03:11:31;;;;;;;38.53;7.53;;;6.00;94.20;;;;;;4861602;29;20448;-76
2024/01/25 03:13:57;;;;;;;45.17;8.35;;;6.00;93.90;;;;;;4878420;29;20426;-76
2024/01/25 03:16:22;;;;;;;42.80;7.00;;;6.00;94.40;;;;;;4877122;29;20444;-76
2024/01/25 03:18:48;;;;;;;39.67;6.73;;;6.00;94.00;;;;;;4878223;29;20411;-76
2024/01/25 03:21:13;;;;;;;41.60;7.50;;;6.00;94.60;;;;;;4857942;29;20418;-76
2024/01/25 03:23:39;;;;;;;42.17;7.90;;;6.10;94.30;;;;;;4874811;29;20691;-76
2024/01/25 03:26:05;;;;;;;41.77;6.83;;;6.00;94.50;;;;;;4877608;29;20416;-76
2024/01/25 03:28:31;;;;;;;41.20;7.47;;;6.00;94.50;;;;;;4876163;29;20448;-76
2024/01/25 03:30:57;;;;;;;38.85;7.30;;;6.00;94.30;;;;;;4878458;29;20767;-76
2024/01/25 03:33:22;;;;;;;39.22;7.47;;;6.00;94.50;;;;;;4880239;29;20419;-76
2024/01/25 03:35:48;;;;;;;41.50;7.07;;;5.90;94.70;;;;;;4879265;29;20970;-76
2024/01/25 03:38:13;;;;;;;41.60;6.97;;;5.90;94.70;;;;;;4880382;29;20411;-76
2024/01/25 03:40:39;;;;;;;43.83;7.20;;;5.90;94.90;;;;;;4878986;29;20421;-76
2024/01/25 03:43:05;;;;;;;41.50;6.65;;;5.90;95.10;;;;;;4880848;29;20801;-76
2024/01/25 03:45:32;;;;;;;47.30;8.38;;;5.90;94.80;;;;;;4879114;29;20790;-76
2024/01/25 03:47:58;;;;;;;43.17;7.80;;;5.80;95.10;;;;;;4880080;29;20428;-76
2024/01/25 03:50:23;;;;;;;43.40;8.02;;;5.80;95.40;;;;;;4858046;29;20433;-76
2024/01/25 03:52:49;;;;;;;41.10;7.20;;;5.80;95.30;;;;;;4875871;29;20798;-77
2024/01/25 03:55:15;;;;;;;42.45;7.85;;;5.80;95.40;;;;;;4877772;29;20503;-76
2024/01/25 03:57:41;;;;;;;44.70;7.10;;;5.80;95.50;;;;;;4877725;29;20421;-76
2024/01/25 04:00:08;;;;;;;46.13;8.02;;;5.80;95.40;;;;;;4876603;29;20764;-77
2024/01/25 04:02:34;;;;;;;45.17;7.53;;;5.70;95.80;;;;;;4878835;29;20448;-76
2024/01/25 04:04:59;;;;;;;38.90;7.28;;;5.70;95.50;;;;;;4878073;29;20408;-76
2024/01/25 04:07:25;;;;;;;43.27;8.10;;;5.70;95.90;;;;;;4861374;29;20423;-76
2024/01/25 04:09:51;;;;;;;42.53;7.57;;;5.70;95.50;;;;;;4858522;29;20426;-76
2024/01/25 04:12:16;;;;;;;41.70;7.33;;;5.60;95.70;;;;;;4875296;29;20499;-76
2024/01/25 04:14:42;;;;;;;49.60;8.00;;;5.60;95.90;;;;;;4877116;29;20425;-76
2024/01/25 04:17:08;;;;;;;43.85;6.97;;;5.60;96.30;;;;;;4877903;29;20424;-76
2024/01/25 04:19:35;;;;;;;46.50;7.90;;;5.50;96.30;;;;;;4877391;29;20424;-76
2024/01/25 04:22:00;;;;;;;49.80;8.03;;;5.50;95.90;;;;;;4876628;29;21143;-76
2024/01/25 04:24:26;;;;;;;43.33;7.70;;;5.50;96.20;;;;;;4876898;29;20495;-76
2024/01/25 04:26:51;;;;;;;49.13;7.60;;;5.50;96.40;;;;;;4876946;29;20423;-76
2024/01/25 04:29:17;;;;;;;45.93;8.07;;;5.40;96.60;;;;;;4876492;29;21342;-76
2024/01/25 04:31:44;;;;;;;48.67;8.35;;;5.50;96.90;;;;;;4878841;29;20500;-76
2024/01/25 04:34:10;;;;;;;45.83;7.13;;;5.40;96.50;;;;;;4877851;29;20457;-76
2024/01/25 04:36:36;;;;;;;44.10;8.43;;;5.40;96.40;;;;;;4879487;29;20442;-77
2024/01/25 04:39:01;;;;;;;52.10;8.07;;;5.40;96.60;;;;;;4877906;29;20848;-76
2024/01/25 04:41:27;;;;;;;56.17;8.55;;;5.30;96.30;;;;;;4876947;29;20519;-76
2024/01/25 04:43:53;;;;;;;47.38;7.65;;;5.30;96.50;;;;;;4878004;29;20504;-76
2024/01/25 04:46:18;;;;;;;44.23;7.73;;;5.30;96.70;;;;;;4879230;29;20835;-76
2024/01/25 04:48:45;;;;;;;51.30;8.30;;;5.20;96.60;;;;;;4877870;29;20415;-76
2024/01/25 04:51:19;;;;;;;51.53;8.18;;;5.20;96.80;;;;;;4879553;29;20541;-77
2024/01/25 04:53:45;;;;;;;51.83;7.95;;;5.10;96.80;;;;;;4875370;29;20424;-76
2024/01/25 04:56:11;;;;;;;54.70;7.78;;;5.10;96.90;;;;;;4879366;29;20431;-76
2024/01/25 04:58:37;;;;;;;50.80;9.03;;;5.10;97.10;;;;;;4876524;29;20919;-76
2024/01/25 05:01:03;;;;;;;47.70;7.53;;;5.10;97.00;;;;;;4879615;29;21124;-76
2024/01/25 05:03:28;;;;;;;45.28;7.53;;;5.00;96.80;;;;;;4857226;29;20433;-76
2024/01/25 05:05:54;;;;;;;46.93;8.03;;;5.00;96.90;;;;;;4875376;29;20430;-76
2024/01/25 05:08:19;;;;;;;48.87;8.27;;;4.90;97.10;;;;;;4876559;29;20432;-76
2024/01/25 05:10:45;;;;;;;43.35;8.00;;;4.90;97.10;;;;;;4878477;29;20506;-77
2024/01/25 05:13:11;;;;;;;46.57;8.47;;;4.90;97.30;;;;;;4875665;29;21005;-76
2024/01/25 05:15:37;;;;;;;54.00;7.85;;;4.80;97.60;;;;;;4877714;29;20430;-76
2024/01/25 05:18:03;;;;;;;46.67;7.60;;;4.80;97.50;;;;;;4876412;29;20416;-76
2024/01/25 05:20:32;;;;;;;43.22;7.72;;;4.80;97.80;;;;;;4861656;29;20786;-76
2024/01/25 05:22:58;;;;;;;50.22;8.13;;;4.80;97.60;;;;;;4876011;29;20443;-76
2024/01/25 05:25:25;;;;;;;44.35;8.25;;;4.80;97.50;;;;;;4877573;29;20419;-76
2024/01/25 05:27:51;;;;;;;50.78;8.25;;;4.70;97.60;;;;;;4856726;29;21064;-76
2024/01/25 05:30:17;;;;;;;46.30;8.03;;;4.70;97.70;;;;;;4873447;29;20522;-76
2024/01/25 05:32:43;;;;;;;50.77;8.30;;;4.70;97.80;;;;;;4874780;29;20553;-76
2024/01/25 05:35:09;;;;;;;50.63;7.73;;;4.70;97.80;;;;;;4876775;29;20785;-76
2024/01/25 05:37:34;;;;;;;55.03;7.68;;;4.60;97.80;;;;;;4876094;29;20504;-76
2024/01/25 05:40:00;;;;;;;47.05;7.72;;;4.60;97.90;;;;;;4875100;29;20436;-76
2024/01/25 05:42:26;;;;;;;46.73;8.47;;;4.60;97.90;;;;;;4876058;29;20476;-77
2024/01/25 05:44:51;;;;;;;48.38;8.45;;;4.60;98.10;;;;;;4857273;29;20428;-76
2024/01/25 05:47:17;;;;;;;49.17;8.27;;;4.50;98.00;;;;;;4876307;29;20417;-76
2024/01/25 05:49:42;;;;;;;44.40;7.40;;;4.50;98.10;;;;;;4876379;29;20803;-76
2024/01/25 05:52:08;;;;;;;48.90;8.30;;;4.50;98.40;;;;;;4875335;29;20508;-76
2024/01/25 05:54:33;;;;;;;42.40;7.03;;;4.50;98.50;;;;;;4876463;29;20424;-76
2024/01/25 05:56:59;;;;;;;49.40;8.25;;;4.50;98.60;;;;;;4875323;29;20413;-76
2024/01/25 05:59:24;;;;;;;45.37;7.77;;;4.50;98.60;;;;;;4876688;29;20428;-76
2024/01/25 06:01:50;;;;;;;54.20;7.55;;;4.50;98.70;;;;;;4876203;29;20942;-76
2024/01/25 06:04:16;;;;;;;55.43;7.90;;;4.50;98.70;;;;;;4877658;29;20407;-77
2024/01/25 06:06:41;;;;;;;52.53;7.90;;;4.40;98.70;;;;;;4859549;29;20424;-76
2024/01/25 06:09:08;;;;;;;48.38;7.72;;;4.40;98.80;;;;;;4875299;29;20421;-76
2024/01/25 06:11:35;;;;;;;50.20;8.35;;;4.40;98.80;;;;;;4859131;29;20431;-77
2024/01/25 06:14:01;;;;;;;52.75;8.00;;;4.40;98.70;;;;;;4875592;29;20440;-76
2024/01/25 06:16:26;;;;;;;48.80;7.38;;;4.30;98.80;;;;;;4855869;29;20426;-77
2024/01/25 06:18:52;;;;;;;49.10;8.90;;;4.30;98.60;;;;;;4856432;29;20445;-77
2024/01/25 06:21:17;;;;;;;49.40;8.13;;;4.30;98.80;;;;;;4874098;29;20935;-77
2024/01/25 06:23:43;;;;;;;52.67;8.33;;;4.30;98.70;;;;;;4858762;29;20421;-77
2024/01/25 06:26:08;;;;;;;55.37;9.03;;;4.30;98.90;;;;;;4874596;29;20472;-78
2024/01/25 06:28:34;;;;;;;52.38;7.50;;;4.30;99.10;;;;;;4855222;29;20549;-77
2024/01/25 06:31:01;;;;;;;56.70;8.40;;;4.30;99.00;;;;;;4856788;29;20452;-77
2024/01/25 06:33:27;;;;;;;52.05;9.48;;;4.20;98.90;;;;;;4866333;29;20846;-77
2024/01/25 06:35:53;;;;;;;54.35;8.55;;;4.20;99.00;;;;;;4875684;29;20420;-77
2024/01/25 06:38:19;;;;;;;51.80;8.27;;;4.20;98.90;;;;;;4875814;29;20407;-77
2024/01/25 06:40:44;;;;;;;49.47;8.50;;;4.20;98.60;;;;;;4874846;29;20435;-77
2024/01/25 06:43:11;;;;;;;48.50;8.05;;;4.20;99.30;;;;;;4875601;29;20486;-77
2024/01/25 06:45:39;;;;;;;50.37;7.90;;;4.30;99.60;;;;;;4873528;29;20420;-77
2024/01/25 06:48:07;;;;;;;53.05;9.00;;;4.30;99.50;;;;;;4873258;29;20429;-77
2024/01/25 06:50:33;;;;;;;57.60;8.60;;;4.30;99.40;;;;;;4873114;29;20795;-77
2024/01/25 06:52:59;;;;;;;48.17;8.23;;;4.30;99.80;;;;;;4875922;29;20523;-77
2024/01/25 06:55:24;;;;;;;56.17;8.70;;;4.30;99.60;;;;;;4892353;29;20506;-77
2024/01/25 06:57:50;;;;;;;52.45;8.85;;;4.40;99.90;;;;;;4890789;29;20926;-77
2024/01/25 07:00:15;;;;;;;53.80;9.13;;;4.40;99.90;;;;;;4891555;29;20450;-77
2024/01/25 07:02:42;;;;;;;45.50;8.10;;;4.30;99.90;;;;;;4888947;29;20452;-77
2024/01/25 07:05:08;;;;;;;57.03;9.27;;;4.40;99.90;;;;;;4886403;29;20416;-77
2024/01/25 07:07:34;;;;;;;58.97;10.17;;;4.40;99.90;;;;;;4889499;29;20456;-77
2024/01/25 07:09:59;;;;;;;55.53;8.90;;;4.40;99.90;;;;;;4894131;29;20451;-77
2024/01/25 07:12:25;;;;;;;50.22;8.50;;;4.40;99.90;;;;;;4891032;29;20504;-76
2024/01/25 07:14:51;;;;;;;53.90;8.77;;;4.40;99.90;;;;;;4893215;29;20443;-76
2024/01/25 07:17:16;;;;;;;52.90;8.87;;;4.40;99.90;;;;;;4890498;29;20501;-76
2024/01/25 07:19:42;;;;;;;52.40;9.05;;;4.40;99.90;;;;;;4877105;29;20422;-76
2024/01/25 07:22:07;;;;;;;53.33;8.97;;;4.40;99.90;;;;;;4880526;29;20538;-77
2024/01/25 07:24:33;;;;;;;54.72;9.10;;;4.40;99.90;;;;;;4893473;29;20474;-76
2024/01/25 07:26:59;;;;;;;47.70;8.07;;;4.40;99.90;;;;;;4888794;29;20420;-76
2024/01/25 07:29:24;;;;;;;53.07;8.77;;;4.40;99.90;;;;;;4886119;29;20484;-77
2024/01/25 07:31:50;;;;;;;56.17;8.57;;;4.50;99.90;;;;;;4880182;29;20415;-77
2024/01/25 07:34:15;;;;;;;57.50;8.77;;;4.50;99.90;;;;;;4878506;29;20840;-77
2024/01/25 07:36:41;;;;;;;52.53;8.55;;;4.60;99.90;;;;;;4880258;29;20458;-77
2024/01/25 07:39:08;;;;;;;50.67;9.17;;;4.50;99.90;;;;;;4878582;29;20490;-77
2024/01/25 07:41:34;;;;;;;47.53;7.93;;;4.50;99.90;;;;;;4879530;29;20442;-77
2024/01/25 07:43:59;;;;;;;54.63;8.88;;;4.50;99.90;;;;;;4876559;29;20417;-77
2024/01/25 07:46:25;;;;;;;47.15;8.38;;;4.60;99.90;;;;;;4862840;29;20474;-76
2024/01/25 07:48:50;;;;;;;50.47;8.27;;;4.60;99.90;;;;;;4877593;29;20476;-77
2024/01/25 07:51:16;;;;;;;60.30;9.85;;;4.60;99.90;;;;;;4878597;29;20481;-76
2024/01/25 07:53:41;;;;;;;51.93;8.57;;;4.60;99.90;;;;;;4877628;29;20463;-77
2024/01/25 07:56:08;;;;;;;52.72;8.50;;;4.50;99.90;;;;;;4878818;29;20976;-76
2024/01/25 07:58:35;;;;;;;51.13;8.52;;;4.50;99.90;;;;;;4877319;29;20982;-76
2024/01/25 08:01:03;;;;;;;56.08;8.32;;;4.50;99.90;;;;;;4877160;29;20508;-77
2024/01/25 08:03:29;;;;;;;48.95;8.40;;;4.50;99.90;;;;;;4876586;29;20504;-76
2024/01/25 08:05:55;;;;;;;58.13;8.97;;;4.50;99.90;;;;;;4889562;29;20414;-76
2024/01/25 08:08:20;;;;;;;54.35;8.35;;;4.60;99.90;;;;;;4886413;29;20432;-76
2024/01/25 08:10:46;;;;;;;52.67;8.73;;;4.60;99.90;;;;;;4875829;29;20989;-76
2024/01/25 08:13:13;;;;;;;50.47;8.13;;;4.60;99.90;;;;;;4884240;29;20419;-76
2024/01/25 08:15:38;;;;;;;54.42;8.52;;;4.60;99.90;;;;;;4892586;29;20497;-76
2024/01/25 08:18:04;;;;;;;59.67;9.80;;;4.70;99.90;;;;;;4894132;29;20419;-76
2024/01/25 08:20:30;;;;;;;52.27;8.60;;;4.70;99.90;;;;;;4892250;29;20547;-77
2024/01/25 08:22:56;;;;;;;55.10;9.20;;;4.70;99.90;;;;;;4876324;29;20442;-77
2024/01/25 08:25:22;;;;;;;54.90;8.80;;;4.70;99.90;;;;;;4891769;29;20778;-76
2024/01/25 08:27:47;;;;;;;56.40;9.48;;;4.70;99.90;;;;;;4893282;29;20411;-77
2024/01/25 08:30:13;;;;;;;61.60;9.43;;;4.80;99.90;;;;;;4880008;29;20421;-76
2024/01/25 08:32:39;;;;;;;57.53;9.02;;;4.80;99.90;;;;;;4877518;29;20494;-77
2024/01/25 08:35:05;;;;;;;61.08;9.93;;;4.80;99.90;;;;;;4878130;29;20423;-76
2024/01/25 08:37:31;;;;;;;49.93;9.00;;;4.80;99.90;;;;;;4877389;29;20560;-77
2024/01/25 08:39:56;;;;;;;60.93;9.83;;;4.90;99.90;;;;;;4862338;29;20509;-76
2024/01/25 08:42:22;;;;;;;54.85;8.75;;;4.90;99.90;;;;;;4877597;29;21041;-76
2024/01/25 08:44:50;;;;;;;52.47;9.73;;;5.00;99.90;;;;;;4862431;29;20480;-76
2024/01/25 08:47:17;;;;;;;58.43;9.97;;;5.00;99.90;;;;;;4859138;29;20432;-76
2024/01/25 08:49:43;;;;;;;60.47;10.13;;;5.10;99.90;;;;;;4878701;29;20418;-77
2024/01/25 08:52:09;;;;;;;52.07;8.77;;;5.10;99.90;;;;;;4877082;29;21136;-76
2024/01/25 08:54:36;;;;;;;56.40;9.20;;;5.10;99.90;;;;;;4878032;29;20819;-76
2024/01/25 08:57:03;;;;;;;53.67;8.68;;;5.20;99.90;;;;;;4875448;29;20424;-76
2024/01/25 08:59:30;;;;;;;48.17;8.63;;;5.20;99.90;;;;;;4876552;29;20433;-76
2024/01/25 09:01:56;;;;;;;60.30;10.07;;;5.30;99.90;;;;;;4875403;29;20452;-76
2024/01/25 09:04:22;;;;;;;52.13;9.30;;;5.30;99.90;;;;;;4875701;29;20435;-77
2024/01/25 09:06:47;;;;;;;49.33;9.07;;;5.30;99.90;;;;;;4875704;29;20424;-77
2024/01/25 09:09:13;;;;;;;51.83;9.97;;;5.30;99.90;;;;;;4875850;29;20415;-77
2024/01/25 09:11:38;;;;;;;56.13;9.80;;;5.40;99.90;;;;;;4875910;29;20432;-77
2024/01/25 09:14:04;;;;;;;53.50;8.93;;;5.40;99.90;;;;;;4875906;29;20968;-77
2024/01/25 09:16:30;;;;;;;57.40;9.07;;;5.50;99.90;;;;;;4875772;29;20424;-76
2024/01/25 09:18:56;;;;;;;53.28;9.68;;;5.50;99.90;;;;;;4875546;29;20433;-77
2024/01/25 09:21:21;;;;;;;55.50;9.60;;;5.50;99.90;;;;;;4875567;29;20423;-77
2024/01/25 09:23:47;;;;;;;53.57;8.73;;;5.50;99.90;;;;;;4876759;29;20572;-77
2024/01/25 09:26:12;;;;;;;61.95;10.48;;;5.50;99.90;;;;;;4892325;29;20477;-77
2024/01/25 09:28:38;;;;;;;55.97;8.90;;;5.60;99.90;;;;;;4887422;29;20427;-77
2024/01/25 09:31:04;;;;;;;57.35;9.35;;;5.60;99.90;;;;;;4876979;29;20417;-77
2024/01/25 09:33:30;;;;;;;54.35;9.98;;;5.60;99.90;;;;;;4877877;29;20912;-77
2024/01/25 09:35:55;;;;;;;49.92;9.48;;;5.60;99.90;;;;;;4876405;29;20477;-77
2024/01/25 09:38:21;;;;;;;56.23;9.70;;;5.60;99.90;;;;;;4876899;29;20542;-77
2024/01/25 09:40:48;;;;;;;55.47;10.70;;;5.70;99.90;;;;;;4875427;29;20427;-77
2024/01/25 09:43:14;;;;;;;58.83;9.30;;;5.70;99.90;;;;;;4858508;29;20482;-77
2024/01/25 09:45:41;;;;;;;51.60;9.30;;;5.70;99.90;;;;;;4874842;29;20455;-77
2024/01/25 09:48:07;;;;;;;51.75;9.88;;;5.70;99.90;;;;;;4874751;29;20419;-77
2024/01/25 09:50:33;;;;;;;59.00;10.40;;;5.80;99.90;;;;;;4874721;29;20416;-77
2024/01/25 09:53:00;;;;;;;56.88;9.70;;;5.80;99.90;;;;;;4874753;29;20417;-77
2024/01/25 09:55:26;;;;;;;58.30;10.48;;;5.90;99.90;;;;;;4875129;29;20417;-77
2024/01/25 09:57:58;;;;;;;44.25;8.65;;;5.90;99.90;;;;;;4876495;29;20480;-77
2024/01/25 10:00:24;;;;;;;50.20;10.30;;;6.00;99.90;;;;;;4875310;29;20515;-77
2024/01/25 10:02:51;;;;;;;53.63;10.68;;;6.10;99.90;;;;;;4873096;29;20933;-77
2024/01/25 10:05:17;;;;;;;52.35;9.07;;;6.10;99.90;;;;;;4890983;29;20418;-77
2024/01/25 10:07:45;;;;;;;50.43;10.30;;;6.20;99.90;;;;;;4889483;29;20419;-77
2024/01/25 10:10:12;;;;;;;55.38;10.52;;;6.30;99.90;;;;;;4891751;29;20431;-77
2024/01/25 10:12:39;;;;;;;52.50;9.88;;;6.30;99.90;;;;;;4879432;29;20434;-77
2024/01/25 10:15:06;;;;;;;52.07;10.47;;;6.30;99.90;;;;;;4881884;29;20478;-77
2024/01/25 10:17:31;;;;;;;59.20;11.32;;;6.40;99.90;;;;;;4888087;29;20415;-77
2024/01/25 10:19:57;;;;;;;47.07;9.60;;;6.50;99.90;;;;;;4891537;29;20443;-77
2024/01/25 10:22:23;;;;;;;52.67;9.90;;;6.50;99.90;;;;;;4889461;29;20443;-77
2024/01/25 10:24:54;;;;;;;52.40;9.32;;;6.60;99.90;;;;;;4891287;29;20446;-77
2024/01/25 10:27:20;;;;;;;47.72;9.45;;;6.60;99.90;;;;;;4889833;29;20415;-77
2024/01/25 10:29:45;;;;;;;50.78;10.07;;;6.60;99.90;;;;;;4864220;29;20418;-77
2024/01/25 10:32:12;;;;;;;51.20;9.63;;;6.70;99.90;;;;;;4876824;29;20775;-77
2024/01/25 10:34:39;;;;;;;44.33;9.17;;;6.70;99.90;;;;;;4874557;29;20535;-76
2024/01/25 10:37:06;;;;;;;50.43;9.20;;;6.80;99.90;;;;;;4876398;29;20508;-76
2024/01/25 10:39:32;;;;;;;49.20;9.68;;;6.80;99.90;;;;;;4867239;29;20430;-76
2024/01/25 10:41:59;;;;;;;44.85;9.35;;;6.90;99.90;;;;;;4880118;29;20451;-76
2024/01/25 10:44:25;;;;;;;50.65;9.57;;;7.00;99.90;;;;;;4878858;29;20421;-76
2024/01/25 10:46:51;;;;;;;43.78;9.05;;;7.20;99.90;;;;;;4890902;29;20439;-77
2024/01/25 10:49:18;;;;;;;45.85;8.68;;;7.80;99.90;;;;;;4879008;29;20811;-77
2024/01/25 10:51:45;;;;;;;37.35;8.02;;;8.60;99.90;;;;;;4879086;29;20421;-77
2024/01/25 10:54:14;;;;;;;41.90;9.05;;;9.40;99.90;;;;;;4879605;29;20421;-77
2024/01/25 10:56:43;;;;;;;44.28;8.77;;;9.80;98.10;;;;;;4879371;29;20420;-77
2024/01/25 10:59:10;;;;;;;38.95;7.53;;;9.90;94.60;;;;;;4891382;29;20770;-77
2024/01/25 11:01:36;;;;;;;41.80;8.10;;;10.10;93.20;;;;;;4878668;29;21414;-77
2024/01/25 11:04:02;;;;;;;33.83;8.05;;;10.30;91.20;;;;;;4878073;29;20428;-77
2024/01/25 11:06:28;;;;;;;36.33;6.97;;;10.30;86.40;;;;;;4878000;29;20516;-76
2024/01/25 11:09:06;;;;;;;35.27;7.83;;;10.10;79.40;;;;;;4878420;29;20485;-76
2024/01/25 11:11:35;;;;;;;38.05;8.48;;;9.80;74.60;;;;;;4851327;29;21237;-77
2024/01/25 11:14:01;;;;;;;40.85;8.90;;;9.70;84.80;;;;;;4880405;29;20498;-77
2024/01/25 11:16:29;;;;;;;35.87;7.97;;;9.80;80.00;;;;;;4887387;29;20852;-76
2024/01/25 11:18:58;;;;;;;42.60;7.85;;;9.70;80.30;;;;;;4879292;29;20415;-77
2024/01/25 11:21:43;;;;;;;39.43;9.10;;;10.00;86.70;;;;;;4877415;29;20451;-77
2024/01/25 11:24:13;;;;;;;35.28;8.35;;;10.50;83.20;;;;;;4877651;29;20412;-77
2024/01/25 11:26:39;;;;;;;36.28;8.32;;;11.10;80.40;;;;;;4876111;29;20786;-77
2024/01/25 11:29:05;;;;;;;37.38;8.10;;;11.60;66.20;;;;;;4861845;29;20630;-77
2024/01/25 11:31:31;;;;;;;36.40;7.83;;;11.80;61.90;;;;;;4878568;29;20456;-77
2024/01/25 11:34:01;;;;;;;36.90;7.85;;;11.80;56.10;;;;;;4877885;29;20416;-77
2024/01/25 11:36:27;;;;;;;31.30;7.73;;;11.90;51.60;;;;;;4858746;29;20430;-77
2024/01/25 11:38:53;;;;;;;31.58;6.75;;;11.70;49.10;;;;;;4877434;29;20431;-76
2024/01/25 11:41:20;;;;;;;40.10;8.15;;;11.80;47.40;;;;;;4879416;29;20428;-77
2024/01/25 11:43:48;;;;;;;36.35;7.60;;;11.70;41.40;;;;;;4876513;29;20428;-77
2024/01/25 11:46:14;;;;;;;34.17;7.30;;;11.50;46.50;;;;;;4878796;29;20990;-77
2024/01/25 11:48:41;;;;;;;32.13;6.82;;;11.30;48.40;;;;;;4877932;29;20513;-78
2024/01/25 11:51:09;;;;;;;37.42;7.80;;;10.90;33.90;;;;;;4876584;29;20420;-77
2024/01/25 11:53:34;;;;;;;31.58;6.82;;;10.50;37.20;;;;;;4877546;29;20420;-77
2024/01/25 11:56:00;;;;;;;38.40;7.78;;;10.10;46.70;;;;;;4878449;29;20504;-77
2024/01/25 11:58:26;;;;;;;34.30;7.30;;;9.90;50.70;;;;;;4878157;29;20810;-77
2024/01/25 12:00:52;;;;;;;41.50;7.63;;;9.60;54.70;;;;;;4879044;29;20425;-77
2024/01/25 12:03:18;;;;;;;33.45;7.53;;;9.50;58.20;;;;;;4867882;29;20438;-77
2024/01/25 12:05:44;;;;;;;36.88;7.28;;;9.40;59.70;;;;;;4872982;29;21236;-77
2024/01/25 12:08:13;;;;;;;38.17;7.70;;;9.30;61.20;;;;;;4876084;29;20925;-77
2024/01/25 12:10:38;;;;;;;37.58;8.07;;;9.20;64.00;;;;;;4875754;29;20417;-77
2024/01/25 12:13:08;;;;;;;37.17;7.13;;;9.10;64.50;;;;;;4875180;29;20432;-77
2024/01/25 12:15:33;;;;;;;38.03;8.88;;;9.00;65.60;;;;;;4875326;29;20500;-77
2024/01/25 12:17:59;;;;;;;42.97;8.80;;;8.90;67.40;;;;;;4856061;29;21260;-77
2024/01/25 12:20:26;;;;;;;35.60;8.07;;;8.80;70.00;;;;;;4882783;29;20411;-77
2024/01/25 12:22:52;;;;;;;38.80;7.73;;;8.70;71.60;;;;;;4892548;29;20801;-77
2024/01/25 12:25:18;;;;;;;33.95;7.85;;;8.60;73.70;;;;;;4873791;29;20418;-77
2024/01/25 12:27:46;;;;;;;34.17;7.77;;;8.50;75.90;;;;;;4892140;29;20406;-77
2024/01/25 12:30:12;;;;;;;37.22;7.55;;;8.50;76.70;;;;;;4879753;29;20415;-77
2024/01/25 12:32:38;;;;;;;34.47;7.60;;;8.50;77.30;;;;;;4877373;29;20423;-77
2024/01/25 12:35:04;;;;;;;36.07;8.00;;;8.40;77.70;;;;;;4878694;29;20463;-77
2024/01/25 12:37:30;;;;;;;36.40;7.75;;;8.40;78.90;;;;;;4876940;29;20779;-77
2024/01/25 12:39:55;;;;;;;37.03;8.47;;;8.40;80.10;;;;;;4878008;29;20410;-77